Time;durP1;ratioP1;P1;durP2;ratioP2;P2;SDS_P1;SDS_P2;PMS_P1;PMS_P2;Temp;Humidity;BMP_temperature;BMP_pressure;BME280_temperature;BME280_humidity;BME280_pressure;Samples;Min_cycle;Max_cycle;Signal;HPM_P1;HPM_P2
2021/07/21 00:04:56;;;;;;;8.45;4.65;;;;;;;16.69;66.90;101048.75;10388338;28;20211;-74
2021/07/21 00:09:59;;;;;;;10.10;4.65;;;;;;;16.73;66.73;101057.44;10388586;28;20705;-74
2021/07/21 00:15:06;;;;;;;8.75;5.05;;;;;;;16.82;66.55;101051.13;10387638;28;20596;-75
2021/07/21 00:20:11;;;;;;;7.60;4.93;;;;;;;16.78;66.70;101045.16;10390174;28;20205;-75
2021/07/21 00:25:16;;;;;;;9.52;5.10;;;;;;;16.76;66.82;101046.31;10428094;23;20249;-74
2021/07/21 00:30:21;;;;;;;7.13;4.63;;;;;;;16.75;66.94;101041.88;10394820;28;20277;-74
2021/07/21 00:35:24;;;;;;;7.70;4.72;;;;;;;16.66;67.03;101037.34;10409346;28;20699;-74
2021/07/21 00:40:27;;;;;;;9.70;4.82;;;;;;;16.61;67.24;101045.06;10393176;28;20702;-74
2021/07/21 00:45:32;;;;;;;9.70;5.05;;;;;;;16.57;67.53;101036.38;10398296;28;20596;-73
2021/07/21 00:50:36;;;;;;;8.35;4.55;;;;;;;16.56;67.52;101035.53;10392732;28;20199;-74
2021/07/21 00:55:40;;;;;;;7.75;5.30;;;;;;;16.57;67.58;101042.66;10392659;28;20353;-73
2021/07/21 01:00:45;;;;;;;8.50;5.30;;;;;;;16.42;67.60;101044.09;10393925;28;20195;-73
2021/07/21 01:05:48;;;;;;;9.90;5.18;;;;;;;16.38;67.96;101050.00;10392511;28;20214;-74
2021/07/21 01:10:57;;;;;;;7.53;5.18;;;;;;;16.28;68.43;101052.72;10393375;28;20241;-74
2021/07/21 01:16:05;;;;;;;9.65;5.43;;;;;;;16.36;68.42;101042.00;10391619;28;20309;-74
2021/07/21 01:21:34;;;;;;;8.07;4.75;;;;;;;16.40;68.38;101040.72;10393472;28;20282;-74
2021/07/21 01:26:47;;;;;;;9.90;4.90;;;;;;;16.43;68.54;101045.84;10392567;28;20218;-73
2021/07/21 01:31:55;;;;;;;10.80;4.90;;;;;;;16.46;68.38;101041.97;10391848;28;20464;-73
2021/07/21 01:36:59;;;;;;;9.50;6.25;;;;;;;16.49;68.10;101030.84;10391491;28;20215;-73
2021/07/21 01:42:08;;;;;;;8.25;5.70;;;;;;;16.51;67.95;101040.53;10391002;28;20211;-73
2021/07/21 01:47:21;;;;;;;8.05;4.55;;;;;;;16.50;68.26;101038.81;10391941;28;20618;-74
2021/07/21 01:52:30;;;;;;;5.47;4.43;;;;;;;16.42;68.51;101046.81;10392059;28;20631;-73
2021/07/21 01:57:34;;;;;;;8.63;5.03;;;;;;;16.43;68.71;101044.97;10390225;28;20222;-74
2021/07/21 02:03:10;;;;;;;8.52;5.15;;;;;;;16.29;69.03;101049.00;10374329;28;20210;-74
2021/07/21 02:08:22;;;;;;;10.52;4.90;;;;;;;16.12;69.63;101047.84;10389797;28;20327;-73
2021/07/21 02:13:38;;;;;;;11.65;5.40;;;;;;;16.22;69.27;101040.56;10390526;28;20207;-74
2021/07/21 02:19:15;;;;;;;9.57;5.53;;;;;;;16.22;69.33;101034.28;10380565;28;20269;-73
2021/07/21 02:24:29;;;;;;;7.78;4.97;;;;;;;16.09;69.56;101040.84;10389190;28;20284;-74
2021/07/21 02:29:57;;;;;;;10.23;6.10;;;;;;;15.80;70.98;101040.03;10389518;28;20209;-73
2021/07/21 02:35:05;;;;;;;10.82;6.40;;;;;;;15.88;70.73;101035.63;10388861;28;20253;-73
2021/07/21 02:40:12;;;;;;;9.68;5.07;;;;;;;15.97;70.65;101039.31;10390642;28;20201;-73
2021/07/21 02:45:15;;;;;;;10.77;5.75;;;;;;;15.92;70.39;101036.19;10388286;28;20703;-73
2021/07/21 02:50:22;;;;;;;11.82;6.10;;;;;;;15.90;70.69;101040.88;10388393;28;20285;-73
2021/07/21 02:55:29;;;;;;;13.10;6.95;;;;;;;15.72;71.48;101037.19;10388300;28;20645;-73
2021/07/21 03:00:37;;;;;;;9.32;5.72;;;;;;;15.76;71.38;101039.44;10390010;28;20190;-73
2021/07/21 03:05:54;;;;;;;9.40;5.57;;;;;;;15.90;71.50;101043.59;10389252;28;20217;-74
2021/07/21 03:11:07;;;;;;;9.57;5.70;;;;;;;15.97;71.46;101049.31;10388150;28;20206;-74
2021/07/21 03:16:10;;;;;;;8.18;5.30;;;;;;;16.02;71.30;101052.44;10387633;28;20521;-71
2021/07/21 03:21:27;;;;;;;10.02;5.30;;;;;;;16.03;70.95;101057.69;10389242;28;20182;-72
2021/07/21 03:26:44;;;;;;;8.98;5.43;;;;;;;15.99;71.02;101055.41;10387311;28;20222;-72
2021/07/21 03:31:52;;;;;;;13.43;6.57;;;;;;;16.05;70.68;101057.56;10387686;28;20619;-73
2021/07/21 03:37:00;;;;;;;9.88;6.15;;;;;;;16.06;70.24;101052.00;10387030;28;20234;-71
2021/07/21 03:42:23;;;;;;;12.05;6.65;;;;;;;16.12;70.49;101053.25;10389422;28;20664;-72
2021/07/21 03:47:28;;;;;;;12.35;6.63;;;;;;;16.05;70.24;101061.13;10388285;28;20679;-71
2021/07/21 03:52:35;;;;;;;9.32;5.43;;;;;;;16.12;70.70;101064.97;10388393;28;20609;-73
2021/07/21 03:57:45;;;;;;;10.75;6.75;;;;;;;16.12;70.11;101069.53;10387595;28;20264;-73
2021/07/21 04:02:54;;;;;;;11.63;6.90;;;;;;;16.09;70.31;101069.81;10386945;28;20547;-73
2021/07/21 04:08:03;;;;;;;11.60;6.80;;;;;;;16.03;70.40;101079.38;10393256;28;20596;-73
2021/07/21 04:13:07;;;;;;;11.00;6.90;;;;;;;15.99;70.62;101079.78;10386890;28;20203;-73
2021/07/21 04:18:32;;;;;;;9.25;6.10;;;;;;;15.92;71.07;101080.38;10387023;28;20257;-73
2021/07/21 04:23:39;;;;;;;12.10;6.22;;;;;;;15.85;71.66;101087.38;10386170;28;20233;-73
2021/07/21 04:28:44;;;;;;;11.73;7.18;;;;;;;15.78;71.80;101090.78;10385699;28;20198;-73
2021/07/21 04:33:49;;;;;;;10.80;6.13;;;;;;;15.89;71.60;101085.22;10385834;28;20215;-73
2021/07/21 04:38:56;;;;;;;9.88;6.57;;;;;;;16.00;71.69;101098.63;10385566;28;20661;-73
2021/07/21 04:44:05;;;;;;;11.07;6.20;;;;;;;16.04;71.77;101099.19;10386674;28;20638;-73
2021/07/21 04:49:38;;;;;;;13.43;6.45;;;;;;;16.07;71.40;101113.34;10382617;28;20210;-73
2021/07/21 04:54:46;;;;;;;10.93;6.47;;;;;;;16.27;70.75;101119.63;10384946;28;20250;-73
2021/07/21 04:59:49;;;;;;;10.85;6.85;;;;;;;16.46;70.54;101123.34;10386274;28;20210;-73
2021/07/21 05:04:52;;;;;;;12.50;6.72;;;;;;;16.54;70.27;101134.31;10385722;28;20590;-72
2021/07/21 05:10:08;;;;;;;12.73;7.10;;;;;;;16.38;70.91;101132.19;10386758;28;20305;-72
2021/07/21 05:15:16;;;;;;;14.35;7.40;;;;;;;16.16;71.62;101130.59;10391271;28;20222;-72
2021/07/21 05:20:22;;;;;;;12.40;7.15;;;;;;;16.20;71.66;101136.56;10392833;28;20194;-72
2021/07/21 05:25:40;;;;;;;16.40;7.40;;;;;;;16.36;71.73;101134.19;10392706;28;20209;-73
2021/07/21 05:31:02;;;;;;;13.80;7.80;;;;;;;16.50;70.43;101141.84;10393354;28;20293;-73
2021/07/21 05:36:19;;;;;;;13.23;7.88;;;;;;;16.52;70.49;101139.88;10390805;28;20581;-73
2021/07/21 05:41:25;;;;;;;14.27;8.30;;;;;;;16.72;70.34;101143.38;10392438;28;20182;-72
2021/07/21 05:46:29;;;;;;;14.55;7.90;;;;;;;16.77;69.76;101141.09;10390554;28;20640;-73
2021/07/21 05:51:35;;;;;;;11.80;7.32;;;;;;;16.98;69.20;101138.19;10390816;28;20198;-73
2021/07/21 05:56:48;;;;;;;14.73;8.13;;;;;;;17.25;68.68;101152.81;10390404;28;20222;-73
2021/07/21 06:02:03;;;;;;;16.98;7.90;;;;;;;17.37;68.31;101150.78;10390486;28;20205;-73
2021/07/21 06:07:09;;;;;;;12.50;7.20;;;;;;;17.33;67.95;101163.78;10391684;28;20219;-74
2021/07/21 06:12:32;;;;;;;14.82;8.20;;;;;;;17.34;67.61;101161.94;10393353;28;20202;-72
2021/07/21 06:17:35;;;;;;;14.50;7.85;;;;;;;17.28;68.04;101167.97;10391477;28;20297;-73
2021/07/21 06:22:40;;;;;;;11.77;6.57;;;;;;;17.34;68.00;101159.22;10389825;28;20199;-73
2021/07/21 06:27:54;;;;;;;10.35;6.90;;;;;;;17.62;66.34;101165.53;10362839;23;20239;-74
2021/07/21 06:33:00;;;;;;;12.88;5.82;;;;;;;17.57;66.65;101179.53;10324943;28;20196;-74
2021/07/21 06:38:03;;;;;;;15.68;7.75;;;;;;;17.58;66.84;101175.84;10324533;28;20231;-74
2021/07/21 06:43:09;;;;;;;13.07;7.95;;;;;;;17.77;66.34;101174.00;10324932;28;20580;-75
2021/07/21 06:48:32;;;;;;;14.10;7.40;;;;;;;17.82;65.45;101183.41;10309821;28;20224;-75
2021/07/21 06:53:36;;;;;;;12.00;6.40;;;;;;;17.86;65.43;101184.81;10324960;28;20199;-74
2021/07/21 06:58:50;;;;;;;11.20;6.57;;;;;;;17.88;65.35;101195.53;10309674;28;20596;-75
2021/07/21 07:03:54;;;;;;;16.15;7.03;;;;;;;18.26;64.73;101194.44;10308272;28;20250;-75
2021/07/21 07:09:15;;;;;;;14.05;6.70;;;;;;;18.30;64.21;101203.16;10309657;28;20286;-75
2021/07/21 07:14:22;;;;;;;11.98;6.47;;;;;;;18.33;64.85;101206.41;10309183;28;20653;-74
2021/07/21 07:19:26;;;;;;;15.73;7.57;;;;;;;18.30;64.50;101208.59;10323160;28;20247;-75
2021/07/21 07:24:30;;;;;;;14.25;6.82;;;;;;;18.39;63.86;101210.38;10323713;28;20323;-75
2021/07/21 07:29:35;;;;;;;16.25;7.75;;;;;;;18.76;63.38;101212.06;10308281;28;20255;-75
2021/07/21 07:34:38;;;;;;;13.65;7.18;;;;;;;18.61;62.73;101217.19;10307802;28;20219;-75
2021/07/21 07:39:41;;;;;;;11.68;6.70;;;;;;;18.80;62.11;101211.59;10322421;28;20230;-75
2021/07/21 07:44:45;;;;;;;10.00;6.40;;;;;;;19.13;61.68;101217.28;10307366;28;20688;-75
2021/07/21 07:49:48;;;;;;;9.52;5.65;;;;;;;19.28;60.30;101211.22;10322706;28;20200;-75
2021/07/21 07:54:52;;;;;;;11.40;7.07;;;;;;;19.43;59.92;101215.06;10306069;28;20223;-74
2021/07/21 07:59:56;;;;;;;11.93;6.03;;;;;;;19.40;59.29;101218.13;10307596;28;20565;-75
2021/07/21 08:04:59;;;;;;;9.70;5.90;;;;;;;19.46;59.38;101210.16;10305767;28;20216;-74
2021/07/21 08:10:02;;;;;;;10.13;6.40;;;;;;;19.49;59.61;101213.56;10305964;28;20204;-75
2021/07/21 08:15:08;;;;;;;9.93;5.57;;;;;;;19.87;58.94;101214.94;10305827;28;20224;-75
2021/07/21 08:20:11;;;;;;;10.73;6.13;;;;;;;19.83;58.60;101216.31;10322565;28;20231;-75
2021/07/21 08:25:17;;;;;;;9.57;5.65;;;;;;;19.83;58.42;101216.31;10307443;28;20561;-75
2021/07/21 08:30:27;;;;;;;10.07;6.07;;;;;;;20.09;56.26;101214.31;10306147;28;20287;-75
2021/07/21 08:35:32;;;;;;;7.82;4.63;;;;;;;20.31;55.15;101210.13;10321291;28;20220;-75
2021/07/21 08:40:35;;;;;;;8.82;5.25;;;;;;;19.50;57.50;101218.00;10305221;28;20254;-75
2021/07/21 08:46:00;;;;;;;7.40;4.78;;;;;;;20.04;56.40;101213.13;10324051;28;20220;-75
2021/07/21 08:51:04;;;;;;;9.20;5.90;;;;;;;20.72;54.87;101212.03;10312280;28;20677;-75
2021/07/21 08:56:08;;;;;;;7.68;4.80;;;;;;;20.90;53.32;101220.03;10313401;28;20597;-75
2021/07/21 09:01:13;;;;;;;8.90;5.10;;;;;;;20.77;53.99;101217.84;10313009;28;20193;-75
2021/07/21 09:06:16;;;;;;;7.90;4.75;;;;;;;21.14;53.89;101220.03;10327787;28;20224;-76
2021/07/21 09:11:19;;;;;;;8.85;5.78;;;;;;;21.06;52.69;101222.78;10312754;28;20187;-75
2021/07/21 09:16:24;;;;;;;10.20;5.85;;;;;;;21.45;52.43;101219.28;10312584;28;20206;-75
2021/07/21 09:21:27;;;;;;;7.93;5.03;;;;;;;21.17;53.55;101227.03;10313713;28;20291;-75
2021/07/21 09:26:39;;;;;;;8.80;5.63;;;;;;;22.14;51.21;101221.41;10325059;28;20319;-76
2021/07/21 09:31:44;;;;;;;9.85;6.72;;;;;;;21.87;50.88;101221.69;10310610;28;20668;-76
2021/07/21 09:36:47;;;;;;;9.77;6.20;;;;;;;22.15;50.89;101228.56;10309799;28;20208;-76
2021/07/21 09:41:51;;;;;;;12.40;7.13;;;;;;;21.29;51.90;101228.38;10310747;28;20192;-76
2021/07/21 09:47:13;;;;;;;10.20;6.88;;;;;;;22.24;50.43;101220.13;10309260;28;20239;-76
2021/07/21 09:52:20;;;;;;;8.93;6.10;;;;;;;22.22;49.18;101226.81;10309734;28;20192;-75
2021/07/21 09:57:23;;;;;;;11.18;6.75;;;;;;;22.46;49.90;101225.81;10308775;28;20685;-76
2021/07/21 10:02:27;;;;;;;10.25;6.40;;;;;;;22.58;49.38;101220.78;10310181;28;20600;-74
2021/07/21 10:07:49;;;;;;;11.60;6.85;;;;;;;22.16;48.39;101224.78;10326217;28;20263;-76
2021/07/21 10:13:01;;;;;;;11.50;6.88;;;;;;;22.35;48.58;101227.03;10309363;28;20528;-76
2021/07/21 10:18:08;;;;;;;8.65;6.20;;;;;;;22.73;49.27;101232.59;10309681;28;20245;-76
2021/07/21 10:23:13;;;;;;;9.20;6.18;;;;;;;22.77;48.77;101239.44;10308901;28;20276;-75
2021/07/21 10:28:16;;;;;;;9.73;5.97;;;;;;;22.68;47.95;101232.31;10308288;28;20224;-76
2021/07/21 10:33:21;;;;;;;11.77;6.60;;;;;;;22.14;48.91;101227.72;10308752;28;20583;-75
2021/07/21 10:38:24;;;;;;;10.88;6.80;;;;;;;21.92;48.05;101217.59;10317160;28;20226;-75
2021/07/21 10:43:29;;;;;;;13.27;7.50;;;;;;;22.03;49.35;101223.50;10317426;28;20678;-76
2021/07/21 10:48:45;;;;;;;12.20;7.25;;;;;;;22.38;48.86;101223.97;10317847;28;20212;-75
2021/07/21 10:59:18;;;;;;;9.98;6.82;;;;;;;22.13;48.85;101226.00;10316836;28;20219;-76
2021/07/21 11:04:23;;;;;;;11.32;6.95;;;;;;;22.02;49.38;101220.94;10315494;28;20233;-74
2021/07/21 11:09:32;;;;;;;9.93;6.82;;;;;;;22.54;47.94;101223.88;10315988;28;20283;-76
2021/07/21 11:14:35;;;;;;;9.45;7.00;;;;;;;22.91;47.38;101215.88;10319123;28;20230;-75
2021/07/21 11:19:46;;;;;;;9.80;6.57;;;;;;;23.28;46.95;101214.13;10318119;28;20299;-74
2021/07/21 11:25:06;;;;;;;10.30;6.63;;;;;;;23.86;45.57;101207.81;10317864;28;20230;-75
2021/07/21 11:30:34;;;;;;;12.32;7.05;;;;;;;24.42;44.25;101196.19;10318466;28;20192;-75
2021/07/21 11:35:43;;;;;;;11.45;7.18;;;;;;;24.56;43.39;101197.16;10316967;28;20231;-75
2021/07/21 11:40:47;;;;;;;9.00;6.22;;;;;;;24.50;43.54;101204.28;10320245;28;20298;-74
2021/07/21 11:45:51;;;;;;;11.55;6.80;;;;;;;24.28;44.00;101197.06;10319763;28;20216;-74
2021/07/21 11:50:55;;;;;;;11.85;7.28;;;;;;;24.14;43.72;101217.19;10320616;28;20658;-74
2021/07/21 11:56:08;;;;;;;9.77;6.55;;;;;;;23.30;45.80;101221.13;10320993;28;20212;-74
2021/07/21 12:01:11;;;;;;;11.68;6.68;;;;;;;23.31;45.17;101216.50;10320058;28;20603;-74
2021/07/21 12:06:25;;;;;;;10.80;6.50;;;;;;;23.19;45.18;101224.34;10318320;28;20216;-74
2021/07/21 12:11:28;;;;;;;9.82;6.35;;;;;;;23.84;44.75;101212.63;10336696;28;20649;-74
2021/07/21 12:16:37;;;;;;;12.32;7.82;;;;;;;23.39;44.49;101213.66;10316178;28;20222;-73
2021/07/21 12:21:41;;;;;;;12.30;7.30;;;;;;;23.78;43.87;101212.53;10326324;28;20250;-75
2021/07/21 12:26:46;;;;;;;11.48;7.20;;;;;;;24.61;43.00;101199.31;10332524;28;20289;-75
2021/07/21 12:31:49;;;;;;;11.60;7.72;;;;;;;24.73;41.09;101198.56;10349106;28;20258;-74
2021/07/21 12:36:53;;;;;;;13.50;7.75;;;;;;;24.82;42.37;101193.81;10334564;28;20238;-74
2021/07/21 12:42:08;;;;;;;12.95;7.20;;;;;;;25.47;41.51;101193.63;10332528;28;20223;-74
2021/07/21 12:47:19;;;;;;;12.77;8.07;;;;;;;25.71;40.21;101197.78;10330184;28;20737;-74
2021/07/21 12:52:31;;;;;;;11.43;7.82;;;;;;;25.48;40.49;101189.78;10344691;28;20204;-74
2021/07/21 12:57:36;;;;;;;11.73;7.65;;;;;;;26.11;40.22;101187.78;10344923;28;20655;-75
2021/07/21 13:02:39;;;;;;;14.55;8.35;;;;;;;25.11;40.25;101195.50;10351436;28;20271;-75
2021/07/21 13:07:53;;;;;;;12.82;7.72;;;;;;;25.26;41.04;101192.66;10345347;28;20243;-75
2021/07/21 13:12:56;;;;;;;13.23;8.75;;;;;;;26.21;38.22;101195.59;10344998;28;20631;-74
2021/07/21 13:18:06;;;;;;;11.02;8.13;;;;;;;26.06;37.95;101190.28;10344525;28;20226;-75
2021/07/21 13:23:17;;;;;;;10.82;7.18;;;;;;;26.63;37.63;101179.78;10343560;28;20200;-75
2021/07/21 13:28:27;;;;;;;11.95;8.07;;;;;;;26.41;38.26;101181.91;10357072;28;20260;-74
2021/07/21 13:33:32;;;;;;;11.23;7.82;;;;;;;25.88;37.12;101179.00;10335850;28;20180;-74
2021/07/21 13:38:37;;;;;;;12.13;8.50;;;;;;;25.25;38.93;101181.84;10336124;28;20267;-74
2021/07/21 13:43:40;;;;;;;16.02;8.93;;;;;;;25.49;37.36;101175.00;10337758;28;20196;-74
2021/07/21 13:48:43;;;;;;;13.45;8.15;;;;;;;25.66;37.60;101178.28;10334259;28;20200;-75
2021/07/21 13:53:47;;;;;;;13.20;8.75;;;;;;;24.71;41.00;101175.09;10334632;28;20200;-75
2021/07/21 13:58:50;;;;;;;12.50;7.95;;;;;;;25.57;39.85;101167.44;10331771;28;20220;-75
2021/07/21 14:03:58;;;;;;;13.50;8.32;;;;;;;25.87;39.06;101153.41;10335756;28;20223;-75
2021/07/21 14:09:04;;;;;;;14.23;8.25;;;;;;;25.24;39.93;101152.69;10312917;28;20610;-75
2021/07/21 14:14:08;;;;;;;12.40;8.23;;;;;;;25.92;38.22;101144.50;10310677;28;20636;-75
2021/07/21 14:19:13;;;;;;;12.80;7.55;;;;;;;25.50;39.28;101149.19;10309688;28;20208;-74
2021/07/21 14:24:17;;;;;;;12.80;8.57;;;;;;;25.82;39.09;101147.66;10308975;28;20216;-75
2021/07/21 14:29:21;;;;;;;14.70;8.73;;;;;;;25.75;37.36;101144.88;10309288;28;20192;-75
2021/07/21 14:34:24;;;;;;;11.30;7.55;;;;;;;25.32;40.16;101147.00;10323668;28;20828;-75
2021/07/21 14:39:28;;;;;;;13.25;7.97;;;;;;;26.03;36.91;101146.66;10309047;28;20226;-75
2021/07/21 14:44:31;;;;;;;11.38;6.82;;;;;;;26.66;36.83;101144.41;10307072;28;20218;-75
2021/07/21 14:49:34;;;;;;;11.43;7.00;;;;;;;27.10;36.08;101139.28;10308374;28;20196;-75
2021/07/21 14:54:38;;;;;;;9.07;6.55;;;;;;;26.61;34.00;101146.97;10308356;28;20216;-75
2021/07/21 14:59:41;;;;;;;12.02;6.28;;;;;;;26.18;34.60;101135.47;10308309;28;20242;-75
2021/07/21 15:04:44;;;;;;;13.73;7.82;;;;;;;26.88;34.07;101127.69;10307560;28;20216;-75
2021/07/21 15:09:48;;;;;;;11.05;7.15;;;;;;;27.69;32.07;101118.06;10308157;28;20188;-76
2021/07/21 15:14:51;;;;;;;11.20;7.40;;;;;;;28.98;30.13;101111.13;10307986;28;20240;-75
2021/07/21 15:19:54;;;;;;;10.18;6.55;;;;;;;28.16;31.34;101111.22;10307754;28;20211;-75
2021/07/21 15:24:58;;;;;;;10.82;7.20;;;;;;;28.57;31.91;101112.59;10307389;28;20469;-76
2021/07/21 15:30:01;;;;;;;9.30;6.22;;;;;;;28.52;31.30;101108.84;10308176;28;20207;-76
2021/07/21 15:35:06;;;;;;;9.23;6.38;;;;;;;28.73;30.38;101107.59;10306844;28;20567;-75
2021/07/21 15:40:14;;;;;;;9.02;5.90;;;;;;;29.66;30.50;101098.25;10307052;28;20226;-76
2021/07/21 15:45:17;;;;;;;8.85;6.00;;;;;;;30.35;28.87;101104.22;10306705;28;20224;-76
2021/07/21 15:50:20;;;;;;;8.77;6.30;;;;;;;30.37;29.78;101099.31;10306944;28;20289;-75
2021/07/21 15:55:24;;;;;;;8.30;6.05;;;;;;;30.39;29.37;101094.34;10305998;28;20219;-75
2021/07/21 16:00:27;;;;;;;9.25;6.22;;;;;;;28.89;29.55;101087.63;10306388;28;20208;-76
2021/07/21 16:05:30;;;;;;;11.48;6.75;;;;;;;30.01;30.05;101096.44;10305880;28;20212;-75
2021/07/21 16:10:35;;;;;;;11.20;6.85;;;;;;;30.54;29.61;101086.41;10306279;28;20744;-75
2021/07/21 16:15:39;;;;;;;10.15;6.95;;;;;;;29.48;29.67;101083.31;10305448;28;20625;-75
2021/07/21 16:20:42;;;;;;;10.02;7.28;;;;;;;28.20;31.92;101087.63;10306473;28;20207;-76
2021/07/21 16:25:47;;;;;;;10.75;6.93;;;;;;;25.20;36.32;101086.22;10305018;28;20231;-75
2021/07/21 16:30:50;;;;;;;9.57;6.80;;;;;;;24.67;37.69;101089.50;10306118;28;20192;-76
2021/07/21 16:35:52;;;;;;;9.20;5.75;;;;;;;24.29;39.08;101091.69;10305643;28;20212;-75
2021/07/21 16:40:57;;;;;;;11.30;6.72;;;;;;;23.96;40.34;101080.41;10305772;28;20302;-74
2021/07/21 16:46:00;;;;;;;9.63;6.20;;;;;;;23.58;41.72;101089.69;10304606;28;20212;-74
2021/07/21 16:51:03;;;;;;;12.45;6.85;;;;;;;23.27;42.65;101079.00;10305330;28;20262;-75
2021/07/21 16:56:07;;;;;;;10.48;6.15;;;;;;;23.07;42.92;101080.59;10305509;28;20219;-75
2021/07/21 17:01:10;;;;;;;9.00;5.82;;;;;;;22.93;43.73;101087.78;10305602;28;20248;-74
2021/07/21 17:06:16;;;;;;;12.02;7.00;;;;;;;22.69;44.16;101087.00;10306035;28;20216;-74
2021/07/21 17:11:21;;;;;;;11.07;5.60;;;;;;;22.57;44.24;101085.75;10311409;28;20180;-74
2021/07/21 17:16:24;;;;;;;9.95;6.70;;;;;;;22.50;44.90;101095.75;10311111;28;20234;-75
2021/07/21 17:21:27;;;;;;;11.15;6.85;;;;;;;22.38;45.47;101087.13;10311192;28;20220;-75
2021/07/21 17:26:31;;;;;;;11.07;6.03;;;;;;;22.28;45.37;101092.00;10310975;28;20594;-75
2021/07/21 17:31:35;;;;;;;10.90;6.75;;;;;;;22.24;46.16;101085.19;10311759;28;20188;-75
2021/07/21 17:36:38;;;;;;;10.68;6.57;;;;;;;22.24;46.26;101083.31;10310561;28;20216;-74
2021/07/21 17:41:42;;;;;;;14.52;7.85;;;;;;;22.20;46.48;101084.69;10310734;28;20211;-74
2021/07/21 17:46:45;;;;;;;10.88;7.13;;;;;;;22.23;46.60;101080.75;10311538;28;20240;-74
2021/07/21 17:51:48;;;;;;;12.68;7.45;;;;;;;22.32;46.36;101085.97;10310539;28;20200;-75
2021/07/21 17:56:52;;;;;;;11.18;6.55;;;;;;;22.30;46.51;101087.19;10309927;28;20699;-75
2021/07/21 18:01:55;;;;;;;11.55;6.20;;;;;;;22.42;46.15;101090.34;10310118;28;20212;-75
2021/07/21 18:06:58;;;;;;;10.73;6.90;;;;;;;22.50;46.53;101088.38;10309356;28;20296;-75
2021/07/21 18:12:03;;;;;;;10.65;7.05;;;;;;;22.55;46.14;101079.63;10309477;28;20188;-75
2021/07/21 18:17:06;;;;;;;11.38;7.80;;;;;;;22.59;46.12;101080.94;10308537;28;20208;-75
2021/07/21 18:22:09;;;;;;;11.40;6.75;;;;;;;22.57;46.70;101084.91;10309029;28;20219;-75
2021/07/21 18:27:14;;;;;;;13.38;7.07;;;;;;;22.39;48.12;101083.34;10375228;23;20246;-74
2021/07/21 18:32:17;;;;;;;12.02;7.32;;;;;;;22.13;49.91;101078.25;10350524;28;20212;-74
2021/07/21 18:37:20;;;;;;;11.35;7.13;;;;;;;21.87;51.53;101087.69;10349924;28;20215;-74
2021/07/21 18:42:24;;;;;;;10.88;6.85;;;;;;;21.49;52.74;101083.13;10349682;28;20699;-73
2021/07/21 18:47:27;;;;;;;11.27;7.22;;;;;;;21.14;53.25;101082.59;10348913;28;20219;-73
2021/07/21 18:52:30;;;;;;;9.63;6.22;;;;;;;20.96;53.84;101074.63;10349436;28;20183;-74
2021/07/21 18:57:36;;;;;;;10.95;6.57;;;;;;;20.83;54.24;101086.09;10348794;28;20207;-74
2021/07/21 19:02:39;;;;;;;12.18;6.85;;;;;;;20.65;54.28;101082.72;10349114;28;20242;-74
2021/07/21 19:07:43;;;;;;;13.30;7.50;;;;;;;20.43;53.32;101090.63;10348519;28;20217;-74
2021/07/21 19:12:50;;;;;;;11.88;7.00;;;;;;;20.12;53.94;101087.69;10348800;28;20196;-75
2021/07/21 19:17:53;;;;;;;14.02;7.40;;;;;;;19.93;54.11;101085.28;10349378;28;20222;-73
2021/07/21 19:22:55;;;;;;;10.45;6.72;;;;;;;19.89;54.13;101091.09;10350900;28;20223;-73
2021/07/21 19:28:01;;;;;;;11.73;7.10;;;;;;;19.86;54.93;101087.84;10347743;28;20230;-73
2021/07/21 19:33:04;;;;;;;13.68;7.50;;;;;;;19.82;55.22;101095.50;10348265;28;20195;-73
2021/07/21 19:38:07;;;;;;;10.60;7.03;;;;;;;19.78;55.28;101088.69;10330042;28;20223;-73
2021/07/21 19:43:12;;;;;;;14.80;8.00;;;;;;;19.68;54.93;101093.41;10347718;28;20677;-73
2021/07/21 19:48:17;;;;;;;14.82;7.28;;;;;;;19.59;54.43;101088.97;10347867;28;20219;-73
2021/07/21 19:53:20;;;;;;;11.23;7.25;;;;;;;19.61;54.47;101085.06;10347869;28;20578;-73
2021/07/21 19:58:24;;;;;;;12.18;7.10;;;;;;;19.64;54.73;101084.75;10347089;28;20710;-73
2021/07/21 20:03:27;;;;;;;11.27;6.95;;;;;;;19.55;54.03;101093.84;10347322;28;20214;-73
2021/07/21 20:08:30;;;;;;;13.73;7.32;;;;;;;19.45;54.70;101091.28;10347368;28;20311;-73
2021/07/21 20:13:35;;;;;;;12.02;7.30;;;;;;;19.44;54.12;101091.44;10347175;28;20187;-73
2021/07/21 20:18:38;;;;;;;13.15;7.85;;;;;;;19.35;54.11;101096.03;10346426;28;20298;-73
2021/07/21 20:23:41;;;;;;;15.00;7.85;;;;;;;19.46;54.70;101100.31;10346639;28;20259;-73
2021/07/21 20:28:45;;;;;;;12.75;7.55;;;;;;;19.45;54.60;101094.03;10328494;28;20264;-73
2021/07/21 20:33:50;;;;;;;16.05;8.15;;;;;;;19.31;55.29;101105.56;10346681;28;20199;-74
2021/07/21 20:38:53;;;;;;;13.40;7.85;;;;;;;19.26;55.56;101099.75;10346289;28;20213;-73
2021/07/21 20:43:58;;;;;;;14.80;7.90;;;;;;;19.31;55.77;101101.94;10353351;28;20714;-73
2021/07/21 20:49:01;;;;;;;16.25;9.38;;;;;;;19.35;55.45;101095.16;10353524;28;20237;-73
2021/07/21 20:54:06;;;;;;;13.15;7.57;;;;;;;19.08;56.09;101098.97;10352534;28;20568;-73
2021/07/21 20:59:10;;;;;;;12.30;7.65;;;;;;;18.75;56.63;101099.59;10352943;28;20706;-73
2021/07/21 21:04:13;;;;;;;13.07;7.78;;;;;;;18.85;56.86;101104.13;10352528;28;20302;-73
2021/07/21 21:09:16;;;;;;;14.73;8.45;;;;;;;18.87;57.29;101096.63;10352872;28;20196;-73
2021/07/21 21:14:20;;;;;;;13.77;8.25;;;;;;;18.89;57.19;101108.22;10352223;28;20194;-73
2021/07/21 21:19:24;;;;;;;14.85;8.55;;;;;;;18.87;56.52;101102.97;10353090;28;20600;-73
2021/07/21 21:24:26;;;;;;;15.85;8.18;;;;;;;18.87;56.68;101102.09;10351862;28;20696;-73
2021/07/21 21:29:31;;;;;;;14.80;8.15;;;;;;;18.73;56.76;101098.94;10352592;28;20176;-73
2021/07/21 21:34:34;;;;;;;13.07;7.80;;;;;;;18.60;57.17;101103.09;10351735;28;20214;-73
2021/07/21 21:39:37;;;;;;;12.95;7.15;;;;;;;18.28;59.32;101108.13;10351902;28;20207;-73
2021/07/21 21:44:41;;;;;;;10.68;7.13;;;;;;;18.13;59.61;101101.53;10351353;28;20227;-73
2021/07/21 21:49:44;;;;;;;12.00;7.40;;;;;;;18.34;59.62;101101.19;10351854;28;20196;-73
2021/07/21 21:54:47;;;;;;;15.55;7.35;;;;;;;18.48;59.51;101100.59;10350391;28;20583;-73
2021/07/21 21:59:51;;;;;;;13.90;7.72;;;;;;;18.48;59.15;101097.88;10351403;28;20668;-73
2021/07/21 22:04:54;;;;;;;13.25;7.28;;;;;;;18.46;58.88;101101.81;10331995;28;20227;-73
2021/07/21 22:09:57;;;;;;;13.35;7.55;;;;;;;18.49;58.16;101098.78;10349788;28;20191;-73
2021/07/21 22:15:04;;;;;;;12.60;7.68;;;;;;;18.57;58.17;101104.25;10349200;28;20225;-74
2021/07/21 22:20:10;;;;;;;15.48;8.15;;;;;;;18.58;58.08;101093.22;10349728;28;20475;-73
2021/07/21 22:25:14;;;;;;;13.13;7.68;;;;;;;18.61;58.33;101099.34;10348677;28;20234;-73
2021/07/21 22:30:24;;;;;;;12.05;8.07;;;;;;;18.64;58.40;101093.59;10349589;28;20250;-73
2021/07/21 22:35:28;;;;;;;14.77;9.23;;;;;;;18.56;59.43;101092.50;10349182;28;20212;-73
2021/07/21 22:40:31;;;;;;;17.15;9.27;;;;;;;18.49;59.44;101101.50;10331386;28;20199;-73
2021/07/21 22:45:35;;;;;;;20.25;9.10;;;;;;;18.51;59.22;101100.31;10348669;28;20214;-73
2021/07/21 22:50:39;;;;;;;15.68;9.20;;;;;;;18.47;59.61;101096.19;10348447;28;20187;-73
2021/07/21 22:55:42;;;;;;;14.93;8.98;;;;;;;18.40;60.40;101100.53;10347919;28;20219;-73
2021/07/21 23:00:54;;;;;;;18.20;8.30;;;;;;;18.36;60.83;101101.91;10348410;28;20198;-73
2021/07/21 23:06:35;;;;;;;12.98;7.97;;;;;;;17.94;63.43;101099.81;10347146;28;20222;-73
2021/07/21 23:12:15;;;;;;;15.93;8.20;;;;;;;18.09;62.65;101097.41;10347884;28;20546;-73
2021/07/21 23:17:19;;;;;;;15.75;8.90;;;;;;;18.12;62.66;101097.09;10347431;28;20212;-73
2021/07/21 23:22:22;;;;;;;14.98;8.50;;;;;;;18.09;61.90;101084.66;10330100;28;20246;-73
2021/07/21 23:27:26;;;;;;;13.55;8.63;;;;;;;18.08;61.27;101085.69;10346862;28;20298;-73